sensor_id;sensor_type;location;lat;lon;timestamp;P1;durP1;ratioP1;P2;durP2;ratioP2
5690;SDS011;2870;42.680;23.364;2022-09-13T00:00:47;9.07;;;7.00;;
5690;SDS011;2870;42.680;23.364;2022-09-13T00:03:16;10.33;;;7.10;;
5690;SDS011;2870;42.680;23.364;2022-09-13T00:05:43;10.37;;;6.50;;
5690;SDS011;2870;42.680;23.364;2022-09-13T00:08:10;12.20;;;7.33;;
5690;SDS011;2870;42.680;23.364;2022-09-13T00:10:37;14.23;;;6.77;;
5690;SDS011;2870;42.680;23.364;2022-09-13T00:13:06;12.40;;;7.50;;
5690;SDS011;2870;42.680;23.364;2022-09-13T00:15:34;8.60;;;6.70;;
5690;SDS011;2870;42.680;23.364;2022-09-13T00:18:01;9.97;;;7.23;;
5690;SDS011;2870;42.680;23.364;2022-09-13T00:20:31;14.33;;;7.07;;
5690;SDS011;2870;42.680;23.364;2022-09-13T00:22:57;8.50;;;7.00;;
5690;SDS011;2870;42.680;23.364;2022-09-13T00:25:24;9.23;;;6.30;;
5690;SDS011;2870;42.680;23.364;2022-09-13T00:27:51;9.17;;;7.30;;
5690;SDS011;2870;42.680;23.364;2022-09-13T00:30:18;8.83;;;7.37;;
5690;SDS011;2870;42.680;23.364;2022-09-13T00:32:45;15.00;;;7.30;;
5690;SDS011;2870;42.680;23.364;2022-09-13T00:35:12;7.70;;;6.40;;
5690;SDS011;2870;42.680;23.364;2022-09-13T00:37:40;8.80;;;6.70;;
5690;SDS011;2870;42.680;23.364;2022-09-13T00:40:08;23.73;;;6.80;;
5690;SDS011;2870;42.680;23.364;2022-09-13T00:42:36;12.33;;;6.70;;
5690;SDS011;2870;42.680;23.364;2022-09-13T00:45:12;12.97;;;6.93;;
5690;SDS011;2870;42.680;23.364;2022-09-13T00:47:42;10.73;;;6.70;;
5690;SDS011;2870;42.680;23.364;2022-09-13T00:50:14;9.60;;;6.60;;
5690;SDS011;2870;42.680;23.364;2022-09-13T00:52:47;10.67;;;7.40;;
5690;SDS011;2870;42.680;23.364;2022-09-13T00:55:20;9.27;;;6.70;;
5690;SDS011;2870;42.680;23.364;2022-09-13T00:57:52;11.20;;;6.60;;
5690;SDS011;2870;42.680;23.364;2022-09-13T01:00:21;13.20;;;6.80;;
5690;SDS011;2870;42.680;23.364;2022-09-13T01:02:49;10.00;;;7.33;;
5690;SDS011;2870;42.680;23.364;2022-09-13T01:05:19;9.30;;;6.40;;
5690;SDS011;2870;42.680;23.364;2022-09-13T01:07:51;9.00;;;6.90;;
5690;SDS011;2870;42.680;23.364;2022-09-13T01:10:19;8.80;;;7.20;;
5690;SDS011;2870;42.680;23.364;2022-09-13T01:12:49;7.70;;;6.47;;
5690;SDS011;2870;42.680;23.364;2022-09-13T01:15:19;9.83;;;7.70;;
5690;SDS011;2870;42.680;23.364;2022-09-13T01:17:46;10.33;;;6.93;;
5690;SDS011;2870;42.680;23.364;2022-09-13T01:20:14;10.50;;;6.87;;
5690;SDS011;2870;42.680;23.364;2022-09-13T01:22:50;14.17;;;6.10;;
5690;SDS011;2870;42.680;23.364;2022-09-13T01:26:02;11.33;;;6.83;;
5690;SDS011;2870;42.680;23.364;2022-09-13T01:28:48;9.27;;;6.80;;
5690;SDS011;2870;42.680;23.364;2022-09-13T01:31:48;11.17;;;7.13;;
5690;SDS011;2870;42.680;23.364;2022-09-13T01:34:25;7.80;;;6.40;;
5690;SDS011;2870;42.680;23.364;2022-09-13T01:37:02;12.13;;;7.23;;
5690;SDS011;2870;42.680;23.364;2022-09-13T01:39:48;8.90;;;6.83;;
5690;SDS011;2870;42.680;23.364;2022-09-13T01:42:26;11.30;;;6.60;;
5690;SDS011;2870;42.680;23.364;2022-09-13T01:45:01;9.23;;;6.97;;
5690;SDS011;2870;42.680;23.364;2022-09-13T01:47:40;9.03;;;6.10;;
5690;SDS011;2870;42.680;23.364;2022-09-13T01:50:16;17.83;;;7.20;;
5690;SDS011;2870;42.680;23.364;2022-09-13T01:52:49;8.67;;;6.67;;
5690;SDS011;2870;42.680;23.364;2022-09-13T01:55:25;7.77;;;6.10;;
5690;SDS011;2870;42.680;23.364;2022-09-13T01:58:02;10.13;;;7.20;;
5690;SDS011;2870;42.680;23.364;2022-09-13T02:00:35;9.90;;;6.67;;
5690;SDS011;2870;42.680;23.364;2022-09-13T02:03:06;11.27;;;6.70;;
5690;SDS011;2870;42.680;23.364;2022-09-13T02:05:38;10.37;;;6.93;;
5690;SDS011;2870;42.680;23.364;2022-09-13T02:08:08;10.30;;;6.87;;
5690;SDS011;2870;42.680;23.364;2022-09-13T02:10:40;14.20;;;6.90;;
5690;SDS011;2870;42.680;23.364;2022-09-13T02:13:12;10.07;;;7.33;;
5690;SDS011;2870;42.680;23.364;2022-09-13T02:15:43;9.50;;;6.97;;
5690;SDS011;2870;42.680;23.364;2022-09-13T02:18:16;9.90;;;7.27;;
5690;SDS011;2870;42.680;23.364;2022-09-13T02:20:48;12.13;;;7.33;;
5690;SDS011;2870;42.680;23.364;2022-09-13T02:23:18;11.33;;;7.53;;
5690;SDS011;2870;42.680;23.364;2022-09-13T02:25:51;10.97;;;7.70;;
5690;SDS011;2870;42.680;23.364;2022-09-13T02:28:21;9.60;;;7.90;;
5690;SDS011;2870;42.680;23.364;2022-09-13T02:30:53;13.83;;;7.57;;
5690;SDS011;2870;42.680;23.364;2022-09-13T02:33:27;14.93;;;8.40;;
5690;SDS011;2870;42.680;23.364;2022-09-13T02:35:59;9.73;;;7.80;;
5690;SDS011;2870;42.680;23.364;2022-09-13T02:38:30;10.20;;;7.90;;
5690;SDS011;2870;42.680;23.364;2022-09-13T02:41:01;11.57;;;7.73;;
5690;SDS011;2870;42.680;23.364;2022-09-13T02:43:36;11.53;;;8.47;;
5690;SDS011;2870;42.680;23.364;2022-09-13T02:46:12;10.83;;;7.57;;
5690;SDS011;2870;42.680;23.364;2022-09-13T02:48:51;14.53;;;7.17;;
5690;SDS011;2870;42.680;23.364;2022-09-13T02:51:28;9.20;;;6.70;;
5690;SDS011;2870;42.680;23.364;2022-09-13T02:54:00;9.40;;;7.67;;
5690;SDS011;2870;42.680;23.364;2022-09-13T02:56:46;9.33;;;7.50;;
5690;SDS011;2870;42.680;23.364;2022-09-13T02:59:17;10.50;;;7.67;;
5690;SDS011;2870;42.680;23.364;2022-09-13T03:01:47;15.07;;;7.27;;
5690;SDS011;2870;42.680;23.364;2022-09-13T03:04:19;9.60;;;7.43;;
5690;SDS011;2870;42.680;23.364;2022-09-13T03:06:47;14.87;;;7.73;;
5690;SDS011;2870;42.680;23.364;2022-09-13T03:09:15;9.00;;;6.97;;
5690;SDS011;2870;42.680;23.364;2022-09-13T03:11:49;12.50;;;8.23;;
5690;SDS011;2870;42.680;23.364;2022-09-13T03:14:39;11.03;;;7.13;;
5690;SDS011;2870;42.680;23.364;2022-09-13T03:17:14;9.77;;;7.43;;
5690;SDS011;2870;42.680;23.364;2022-09-13T03:20:04;15.83;;;8.97;;
5690;SDS011;2870;42.680;23.364;2022-09-13T03:22:43;11.43;;;7.87;;
5690;SDS011;2870;42.680;23.364;2022-09-13T03:25:26;11.70;;;7.20;;
5690;SDS011;2870;42.680;23.364;2022-09-13T03:28:06;10.13;;;7.63;;
5690;SDS011;2870;42.680;23.364;2022-09-13T03:30:46;12.13;;;6.90;;
5690;SDS011;2870;42.680;23.364;2022-09-13T03:33:19;10.17;;;7.20;;
5690;SDS011;2870;42.680;23.364;2022-09-13T03:35:56;8.50;;;7.07;;
5690;SDS011;2870;42.680;23.364;2022-09-13T03:38:30;15.30;;;7.10;;
5690;SDS011;2870;42.680;23.364;2022-09-13T03:41:04;10.57;;;6.70;;
5690;SDS011;2870;42.680;23.364;2022-09-13T03:43:35;9.03;;;6.90;;
5690;SDS011;2870;42.680;23.364;2022-09-13T03:46:06;13.00;;;7.47;;
5690;SDS011;2870;42.680;23.364;2022-09-13T03:48:38;9.60;;;7.80;;
5690;SDS011;2870;42.680;23.364;2022-09-13T03:51:08;10.83;;;7.73;;
5690;SDS011;2870;42.680;23.364;2022-09-13T03:53:36;9.90;;;6.77;;
5690;SDS011;2870;42.680;23.364;2022-09-13T03:56:11;13.63;;;8.33;;
5690;SDS011;2870;42.680;23.364;2022-09-13T03:58:38;9.97;;;7.13;;
5690;SDS011;2870;42.680;23.364;2022-09-13T04:01:05;14.30;;;7.63;;
5690;SDS011;2870;42.680;23.364;2022-09-13T04:03:32;10.40;;;7.23;;
5690;SDS011;2870;42.680;23.364;2022-09-13T04:05:58;9.73;;;7.50;;
5690;SDS011;2870;42.680;23.364;2022-09-13T04:08:27;21.13;;;8.17;;
5690;SDS011;2870;42.680;23.364;2022-09-13T04:10:54;10.67;;;8.00;;
5690;SDS011;2870;42.680;23.364;2022-09-13T04:13:21;14.80;;;9.23;;
5690;SDS011;2870;42.680;23.364;2022-09-13T04:15:48;11.50;;;8.47;;
5690;SDS011;2870;42.680;23.364;2022-09-13T04:18:15;13.60;;;7.40;;
5690;SDS011;2870;42.680;23.364;2022-09-13T04:20:42;13.23;;;7.53;;
5690;SDS011;2870;42.680;23.364;2022-09-13T04:23:09;10.70;;;8.10;;
5690;SDS011;2870;42.680;23.364;2022-09-13T04:25:38;13.43;;;7.60;;
5690;SDS011;2870;42.680;23.364;2022-09-13T04:28:05;13.53;;;7.83;;
5690;SDS011;2870;42.680;23.364;2022-09-13T04:30:32;11.23;;;8.50;;
5690;SDS011;2870;42.680;23.364;2022-09-13T04:32:58;15.03;;;9.57;;
5690;SDS011;2870;42.680;23.364;2022-09-13T04:35:25;14.03;;;8.30;;
5690;SDS011;2870;42.680;23.364;2022-09-13T04:37:53;13.73;;;8.83;;
5690;SDS011;2870;42.680;23.364;2022-09-13T04:40:21;13.20;;;8.40;;
5690;SDS011;2870;42.680;23.364;2022-09-13T04:42:49;12.60;;;7.80;;
5690;SDS011;2870;42.680;23.364;2022-09-13T04:45:16;14.27;;;8.77;;
5690;SDS011;2870;42.680;23.364;2022-09-13T04:47:43;17.60;;;9.53;;
5690;SDS011;2870;42.680;23.364;2022-09-13T04:50:09;13.70;;;8.50;;
5690;SDS011;2870;42.680;23.364;2022-09-13T04:52:36;14.13;;;9.00;;
5690;SDS011;2870;42.680;23.364;2022-09-13T04:55:03;11.37;;;7.90;;
5690;SDS011;2870;42.680;23.364;2022-09-13T04:57:31;12.17;;;8.50;;
5690;SDS011;2870;42.680;23.364;2022-09-13T04:59:59;11.83;;;7.80;;
5690;SDS011;2870;42.680;23.364;2022-09-13T05:02:27;14.83;;;7.73;;
5690;SDS011;2870;42.680;23.364;2022-09-13T05:04:53;12.70;;;8.43;;
5690;SDS011;2870;42.680;23.364;2022-09-13T05:07:20;16.37;;;8.00;;
5690;SDS011;2870;42.680;23.364;2022-09-13T05:09:47;15.97;;;7.90;;
5690;SDS011;2870;42.680;23.364;2022-09-13T05:12:14;9.63;;;7.47;;
5690;SDS011;2870;42.680;23.364;2022-09-13T05:14:41;14.23;;;7.73;;
5690;SDS011;2870;42.680;23.364;2022-09-13T05:17:10;10.00;;;7.33;;
5690;SDS011;2870;42.680;23.364;2022-09-13T05:19:37;16.50;;;7.77;;
5690;SDS011;2870;42.680;23.364;2022-09-13T05:22:03;26.83;;;8.10;;
5690;SDS011;2870;42.680;23.364;2022-09-13T05:24:30;11.20;;;7.77;;
5690;SDS011;2870;42.680;23.364;2022-09-13T05:26:57;10.67;;;6.90;;
5690;SDS011;2870;42.680;23.364;2022-09-13T05:29:24;18.23;;;7.23;;
5690;SDS011;2870;42.680;23.364;2022-09-13T05:31:50;9.87;;;7.27;;
5690;SDS011;2870;42.680;23.364;2022-09-13T05:34:18;9.63;;;6.10;;
5690;SDS011;2870;42.680;23.364;2022-09-13T05:36:45;22.10;;;12.00;;
5690;SDS011;2870;42.680;23.364;2022-09-13T05:39:15;10.13;;;7.30;;
5690;SDS011;2870;42.680;23.364;2022-09-13T05:41:43;10.80;;;7.40;;
5690;SDS011;2870;42.680;23.364;2022-09-13T05:44:10;13.60;;;8.20;;
5690;SDS011;2870;42.680;23.364;2022-09-13T05:46:37;14.97;;;6.93;;
5690;SDS011;2870;42.680;23.364;2022-09-13T05:49:04;10.30;;;7.83;;
5690;SDS011;2870;42.680;23.364;2022-09-13T05:51:32;12.40;;;7.00;;
5690;SDS011;2870;42.680;23.364;2022-09-13T05:53:59;11.50;;;7.30;;
5690;SDS011;2870;42.680;23.364;2022-09-13T05:56:26;15.67;;;11.47;;
5690;SDS011;2870;42.680;23.364;2022-09-13T05:58:56;11.23;;;6.47;;
5690;SDS011;2870;42.680;23.364;2022-09-13T06:01:24;12.57;;;7.07;;
5690;SDS011;2870;42.680;23.364;2022-09-13T06:03:52;13.50;;;9.77;;
5690;SDS011;2870;42.680;23.364;2022-09-13T06:06:21;7.43;;;5.70;;
5690;SDS011;2870;42.680;23.364;2022-09-13T06:08:51;20.67;;;6.50;;
5690;SDS011;2870;42.680;23.364;2022-09-13T06:11:19;12.70;;;5.87;;
5690;SDS011;2870;42.680;23.364;2022-09-13T06:13:46;9.53;;;7.33;;
5690;SDS011;2870;42.680;23.364;2022-09-13T06:16:13;10.77;;;5.87;;
5690;SDS011;2870;42.680;23.364;2022-09-13T06:18:41;12.50;;;6.80;;
5690;SDS011;2870;42.680;23.364;2022-09-13T06:21:08;8.07;;;5.57;;
5690;SDS011;2870;42.680;23.364;2022-09-13T06:23:41;9.60;;;6.57;;
5690;SDS011;2870;42.680;23.364;2022-09-13T06:26:10;12.67;;;7.17;;
5690;SDS011;2870;42.680;23.364;2022-09-13T06:28:39;12.23;;;6.57;;
5690;SDS011;2870;42.680;23.364;2022-09-13T06:31:06;11.87;;;7.43;;
5690;SDS011;2870;42.680;23.364;2022-09-13T06:33:34;14.50;;;7.33;;
5690;SDS011;2870;42.680;23.364;2022-09-13T06:36:02;7.80;;;5.60;;
5690;SDS011;2870;42.680;23.364;2022-09-13T06:38:31;14.00;;;6.50;;
5690;SDS011;2870;42.680;23.364;2022-09-13T06:40:59;11.87;;;6.80;;
5690;SDS011;2870;42.680;23.364;2022-09-13T06:43:29;8.87;;;6.63;;
5690;SDS011;2870;42.680;23.364;2022-09-13T06:45:59;10.07;;;5.90;;
5690;SDS011;2870;42.680;23.364;2022-09-13T06:48:29;16.30;;;6.40;;
5690;SDS011;2870;42.680;23.364;2022-09-13T06:50:57;7.93;;;6.00;;
5690;SDS011;2870;42.680;23.364;2022-09-13T06:53:24;8.07;;;5.93;;
5690;SDS011;2870;42.680;23.364;2022-09-13T06:55:59;12.00;;;6.30;;
5690;SDS011;2870;42.680;23.364;2022-09-13T06:58:28;8.80;;;5.50;;
5690;SDS011;2870;42.680;23.364;2022-09-13T07:03:46;9.73;;;5.73;;
5690;SDS011;2870;42.680;23.364;2022-09-13T07:06:14;12.33;;;6.23;;
5690;SDS011;2870;42.680;23.364;2022-09-13T07:08:43;8.07;;;5.97;;
5690;SDS011;2870;42.680;23.364;2022-09-13T07:11:11;12.53;;;5.67;;
5690;SDS011;2870;42.680;23.364;2022-09-13T07:13:41;9.93;;;6.13;;
5690;SDS011;2870;42.680;23.364;2022-09-13T07:16:08;14.30;;;5.60;;
5690;SDS011;2870;42.680;23.364;2022-09-13T07:18:36;10.40;;;6.30;;
5690;SDS011;2870;42.680;23.364;2022-09-13T07:21:04;8.23;;;6.00;;
5690;SDS011;2870;42.680;23.364;2022-09-13T07:23:32;10.13;;;5.77;;
5690;SDS011;2870;42.680;23.364;2022-09-13T07:26:00;7.57;;;5.03;;
5690;SDS011;2870;42.680;23.364;2022-09-13T07:28:30;8.50;;;5.87;;
5690;SDS011;2870;42.680;23.364;2022-09-13T07:31:07;15.70;;;6.87;;
5690;SDS011;2870;42.680;23.364;2022-09-13T07:33:36;10.50;;;5.47;;
5690;SDS011;2870;42.680;23.364;2022-09-13T07:36:05;8.30;;;6.00;;
5690;SDS011;2870;42.680;23.364;2022-09-13T07:38:33;13.40;;;5.00;;
5690;SDS011;2870;42.680;23.364;2022-09-13T07:41:00;8.10;;;5.20;;
5690;SDS011;2870;42.680;23.364;2022-09-13T07:43:30;7.23;;;4.70;;
5690;SDS011;2870;42.680;23.364;2022-09-13T07:45:58;12.50;;;4.57;;
5690;SDS011;2870;42.680;23.364;2022-09-13T07:48:27;8.07;;;4.60;;
5690;SDS011;2870;42.680;23.364;2022-09-13T07:50:56;8.03;;;4.83;;
5690;SDS011;2870;42.680;23.364;2022-09-13T07:53:27;6.37;;;4.43;;
5690;SDS011;2870;42.680;23.364;2022-09-13T07:55:58;6.80;;;4.30;;
5690;SDS011;2870;42.680;23.364;2022-09-13T07:58:26;10.90;;;5.30;;
5690;SDS011;2870;42.680;23.364;2022-09-13T08:00:53;8.10;;;4.47;;
5690;SDS011;2870;42.680;23.364;2022-09-13T08:03:20;6.63;;;4.30;;
5690;SDS011;2870;42.680;23.364;2022-09-13T08:05:48;6.40;;;4.60;;
5690;SDS011;2870;42.680;23.364;2022-09-13T08:08:15;11.33;;;4.67;;
5690;SDS011;2870;42.680;23.364;2022-09-13T08:10:44;7.37;;;3.73;;
5690;SDS011;2870;42.680;23.364;2022-09-13T08:13:10;6.67;;;4.20;;
5690;SDS011;2870;42.680;23.364;2022-09-13T08:15:37;11.10;;;3.83;;
5690;SDS011;2870;42.680;23.364;2022-09-13T08:18:04;12.07;;;4.17;;
5690;SDS011;2870;42.680;23.364;2022-09-13T08:20:34;6.87;;;4.00;;
5690;SDS011;2870;42.680;23.364;2022-09-13T08:23:04;9.07;;;4.23;;
5690;SDS011;2870;42.680;23.364;2022-09-13T08:25:31;7.50;;;4.43;;
5690;SDS011;2870;42.680;23.364;2022-09-13T08:27:59;8.50;;;4.33;;
5690;SDS011;2870;42.680;23.364;2022-09-13T08:30:26;7.27;;;4.50;;
5690;SDS011;2870;42.680;23.364;2022-09-13T08:32:57;6.70;;;4.43;;
5690;SDS011;2870;42.680;23.364;2022-09-13T08:35:25;8.00;;;4.30;;
5690;SDS011;2870;42.680;23.364;2022-09-13T08:37:52;5.73;;;4.10;;
5690;SDS011;2870;42.680;23.364;2022-09-13T08:40:20;8.53;;;3.90;;
5690;SDS011;2870;42.680;23.364;2022-09-13T08:42:49;6.63;;;4.10;;
5690;SDS011;2870;42.680;23.364;2022-09-13T08:45:20;11.63;;;3.50;;
5690;SDS011;2870;42.680;23.364;2022-09-13T08:47:49;6.33;;;4.00;;
5690;SDS011;2870;42.680;23.364;2022-09-13T08:50:22;7.90;;;3.87;;
5690;SDS011;2870;42.680;23.364;2022-09-13T08:52:58;5.70;;;3.43;;
5690;SDS011;2870;42.680;23.364;2022-09-13T08:55:39;5.80;;;3.80;;
5690;SDS011;2870;42.680;23.364;2022-09-13T08:58:28;11.03;;;3.93;;
5690;SDS011;2870;42.680;23.364;2022-09-13T09:01:13;5.97;;;3.77;;
5690;SDS011;2870;42.680;23.364;2022-09-13T09:03:48;8.60;;;3.40;;
5690;SDS011;2870;42.680;23.364;2022-09-13T09:06:20;6.60;;;4.77;;
5690;SDS011;2870;42.680;23.364;2022-09-13T09:08:48;7.00;;;3.90;;
5690;SDS011;2870;42.680;23.364;2022-09-13T09:11:23;7.20;;;4.03;;
5690;SDS011;2870;42.680;23.364;2022-09-13T09:13:56;5.60;;;3.47;;
5690;SDS011;2870;42.680;23.364;2022-09-13T09:16:32;6.83;;;4.10;;
5690;SDS011;2870;42.680;23.364;2022-09-13T09:19:07;13.07;;;4.37;;
5690;SDS011;2870;42.680;23.364;2022-09-13T09:21:42;7.20;;;3.90;;
5690;SDS011;2870;42.680;23.364;2022-09-13T09:24:11;6.87;;;3.50;;
5690;SDS011;2870;42.680;23.364;2022-09-13T09:26:45;5.67;;;3.60;;
5690;SDS011;2870;42.680;23.364;2022-09-13T09:29:14;5.53;;;3.60;;
5690;SDS011;2870;42.680;23.364;2022-09-13T09:31:44;9.27;;;3.80;;
5690;SDS011;2870;42.680;23.364;2022-09-13T09:34:25;5.47;;;3.30;;
5690;SDS011;2870;42.680;23.364;2022-09-13T09:37:07;5.33;;;3.20;;
5690;SDS011;2870;42.680;23.364;2022-09-13T09:39:41;8.17;;;3.87;;
5690;SDS011;2870;42.680;23.364;2022-09-13T09:42:11;5.10;;;3.40;;
5690;SDS011;2870;42.680;23.364;2022-09-13T09:44:44;7.77;;;3.60;;
5690;SDS011;2870;42.680;23.364;2022-09-13T09:47:15;5.80;;;3.83;;
5690;SDS011;2870;42.680;23.364;2022-09-13T09:49:44;6.70;;;4.20;;
5690;SDS011;2870;42.680;23.364;2022-09-13T09:52:32;6.03;;;3.43;;
5690;SDS011;2870;42.680;23.364;2022-09-13T09:55:13;6.50;;;3.33;;
5690;SDS011;2870;42.680;23.364;2022-09-13T09:57:52;9.93;;;4.00;;
5690;SDS011;2870;42.680;23.364;2022-09-13T10:00:21;6.43;;;3.87;;
5690;SDS011;2870;42.680;23.364;2022-09-13T10:02:50;7.17;;;4.03;;
5690;SDS011;2870;42.680;23.364;2022-09-13T10:05:21;9.50;;;4.40;;
5690;SDS011;2870;42.680;23.364;2022-09-13T10:07:56;6.43;;;4.90;;
5690;SDS011;2870;42.680;23.364;2022-09-13T10:10:28;5.77;;;3.47;;
5690;SDS011;2870;42.680;23.364;2022-09-13T10:13:03;7.90;;;4.43;;
5690;SDS011;2870;42.680;23.364;2022-09-13T10:15:32;5.40;;;3.50;;
5690;SDS011;2870;42.680;23.364;2022-09-13T10:18:00;5.47;;;3.63;;
5690;SDS011;2870;42.680;23.364;2022-09-13T10:20:30;8.30;;;3.80;;
5690;SDS011;2870;42.680;23.364;2022-09-13T10:23:08;6.30;;;3.90;;
5690;SDS011;2870;42.680;23.364;2022-09-13T10:25:37;6.13;;;4.27;;
5690;SDS011;2870;42.680;23.364;2022-09-13T10:28:09;5.40;;;3.70;;
5690;SDS011;2870;42.680;23.364;2022-09-13T10:30:40;10.17;;;4.23;;
5690;SDS011;2870;42.680;23.364;2022-09-13T10:33:16;5.70;;;4.10;;
5690;SDS011;2870;42.680;23.364;2022-09-13T10:35:52;5.47;;;3.30;;
5690;SDS011;2870;42.680;23.364;2022-09-13T10:38:23;5.80;;;3.57;;
5690;SDS011;2870;42.680;23.364;2022-09-13T10:40:55;9.83;;;3.67;;
5690;SDS011;2870;42.680;23.364;2022-09-13T10:43:24;5.50;;;3.40;;
5690;SDS011;2870;42.680;23.364;2022-09-13T10:45:54;5.30;;;3.60;;
5690;SDS011;2870;42.680;23.364;2022-09-13T10:48:21;6.03;;;3.80;;
5690;SDS011;2870;42.680;23.364;2022-09-13T10:51:01;7.17;;;4.30;;
5690;SDS011;2870;42.680;23.364;2022-09-13T10:53:32;5.90;;;3.80;;
5690;SDS011;2870;42.680;23.364;2022-09-13T10:56:01;7.00;;;4.07;;
5690;SDS011;2870;42.680;23.364;2022-09-13T10:58:30;7.00;;;3.97;;
5690;SDS011;2870;42.680;23.364;2022-09-13T11:01:03;6.30;;;4.20;;
5690;SDS011;2870;42.680;23.364;2022-09-13T11:07:25;5.47;;;4.00;;
5690;SDS011;2870;42.680;23.364;2022-09-13T11:10:02;7.50;;;3.90;;
5690;SDS011;2870;42.680;23.364;2022-09-13T11:12:39;5.00;;;3.60;;
5690;SDS011;2870;42.680;23.364;2022-09-13T11:15:14;6.13;;;4.00;;
5690;SDS011;2870;42.680;23.364;2022-09-13T11:18:05;6.17;;;3.80;;
5690;SDS011;2870;42.680;23.364;2022-09-13T11:21:05;5.00;;;3.77;;
5690;SDS011;2870;42.680;23.364;2022-09-13T11:26:34;11.23;;;4.10;;
5690;SDS011;2870;42.680;23.364;2022-09-13T11:29:14;5.90;;;3.73;;
5690;SDS011;2870;42.680;23.364;2022-09-13T11:31:55;4.93;;;3.67;;
5690;SDS011;2870;42.680;23.364;2022-09-13T11:34:39;5.10;;;3.57;;
5690;SDS011;2870;42.680;23.364;2022-09-13T11:37:28;9.00;;;4.00;;
5690;SDS011;2870;42.680;23.364;2022-09-13T11:42:59;7.13;;;4.07;;
5690;SDS011;2870;42.680;23.364;2022-09-13T11:45:49;5.37;;;3.70;;
5690;SDS011;2870;42.680;23.364;2022-09-13T11:48:30;5.90;;;3.77;;
5690;SDS011;2870;42.680;23.364;2022-09-13T11:51:17;5.10;;;3.67;;
5690;SDS011;2870;42.680;23.364;2022-09-13T11:53:54;5.80;;;3.90;;
5690;SDS011;2870;42.680;23.364;2022-09-13T11:56:33;5.13;;;3.50;;
5690;SDS011;2870;42.680;23.364;2022-09-13T11:59:07;4.87;;;3.33;;
5690;SDS011;2870;42.680;23.364;2022-09-13T12:01:43;5.10;;;3.67;;
5690;SDS011;2870;42.680;23.364;2022-09-13T12:04:18;6.43;;;3.67;;
5690;SDS011;2870;42.680;23.364;2022-09-13T12:06:51;5.00;;;3.50;;
5690;SDS011;2870;42.680;23.364;2022-09-13T12:09:22;8.50;;;3.73;;
5690;SDS011;2870;42.680;23.364;2022-09-13T12:11:55;10.97;;;4.60;;
5690;SDS011;2870;42.680;23.364;2022-09-13T12:14:29;8.53;;;4.23;;
5690;SDS011;2870;42.680;23.364;2022-09-13T12:17:03;5.83;;;3.80;;
5690;SDS011;2870;42.680;23.364;2022-09-13T12:19:40;5.23;;;3.57;;
5690;SDS011;2870;42.680;23.364;2022-09-13T12:22:12;4.90;;;3.23;;
5690;SDS011;2870;42.680;23.364;2022-09-13T12:24:41;5.90;;;3.30;;
5690;SDS011;2870;42.680;23.364;2022-09-13T12:27:12;7.30;;;3.13;;
5690;SDS011;2870;42.680;23.364;2022-09-13T12:29:49;9.63;;;3.30;;
5690;SDS011;2870;42.680;23.364;2022-09-13T12:32:18;6.90;;;3.63;;
5690;SDS011;2870;42.680;23.364;2022-09-13T12:34:49;8.23;;;3.70;;
5690;SDS011;2870;42.680;23.364;2022-09-13T12:37:28;6.60;;;3.50;;
5690;SDS011;2870;42.680;23.364;2022-09-13T12:40:20;9.20;;;4.00;;
5690;SDS011;2870;42.680;23.364;2022-09-13T12:43:06;5.90;;;3.90;;
5690;SDS011;2870;42.680;23.364;2022-09-13T12:48:56;7.27;;;3.80;;
5690;SDS011;2870;42.680;23.364;2022-09-13T12:51:42;6.73;;;3.97;;
5690;SDS011;2870;42.680;23.364;2022-09-13T12:54:39;6.63;;;3.50;;
5690;SDS011;2870;42.680;23.364;2022-09-13T12:57:29;6.57;;;3.70;;
5690;SDS011;2870;42.680;23.364;2022-09-13T13:00:10;5.60;;;3.57;;
5690;SDS011;2870;42.680;23.364;2022-09-13T13:02:44;8.97;;;3.43;;
5690;SDS011;2870;42.680;23.364;2022-09-13T13:05:19;10.93;;;3.77;;
5690;SDS011;2870;42.680;23.364;2022-09-13T13:07:53;4.53;;;3.10;;
5690;SDS011;2870;42.680;23.364;2022-09-13T13:10:24;5.00;;;3.70;;
5690;SDS011;2870;42.680;23.364;2022-09-13T13:12:54;8.30;;;3.53;;
5690;SDS011;2870;42.680;23.364;2022-09-13T13:18:23;6.37;;;3.40;;
5690;SDS011;2870;42.680;23.364;2022-09-13T13:21:04;6.73;;;3.33;;
5690;SDS011;2870;42.680;23.364;2022-09-13T13:23:49;5.53;;;3.70;;
5690;SDS011;2870;42.680;23.364;2022-09-13T13:26:55;5.67;;;3.87;;
5690;SDS011;2870;42.680;23.364;2022-09-13T13:29:23;5.17;;;3.43;;
5690;SDS011;2870;42.680;23.364;2022-09-13T13:32:10;5.00;;;3.50;;
5690;SDS011;2870;42.680;23.364;2022-09-13T13:34:40;8.10;;;3.80;;
5690;SDS011;2870;42.680;23.364;2022-09-13T13:37:25;11.07;;;5.30;;
5690;SDS011;2870;42.680;23.364;2022-09-13T13:40:18;6.50;;;4.27;;
5690;SDS011;2870;42.680;23.364;2022-09-13T13:42:47;13.13;;;8.90;;
5690;SDS011;2870;42.680;23.364;2022-09-13T13:45:22;5.83;;;3.80;;
5690;SDS011;2870;42.680;23.364;2022-09-13T13:47:55;5.77;;;3.63;;
5690;SDS011;2870;42.680;23.364;2022-09-13T13:53:41;6.03;;;4.17;;
5690;SDS011;2870;42.680;23.364;2022-09-13T13:56:16;11.60;;;4.30;;
5690;SDS011;2870;42.680;23.364;2022-09-13T13:58:46;6.70;;;4.30;;
5690;SDS011;2870;42.680;23.364;2022-09-13T14:01:18;6.47;;;4.23;;
5690;SDS011;2870;42.680;23.364;2022-09-13T14:03:57;6.83;;;4.40;;
5690;SDS011;2870;42.680;23.364;2022-09-13T14:06:59;6.73;;;3.83;;
5690;SDS011;2870;42.680;23.364;2022-09-13T14:09:36;6.03;;;4.70;;
5690;SDS011;2870;42.680;23.364;2022-09-13T14:12:15;9.13;;;4.77;;
5690;SDS011;2870;42.680;23.364;2022-09-13T14:14:55;5.97;;;4.27;;
5690;SDS011;2870;42.680;23.364;2022-09-13T14:17:42;9.20;;;4.27;;
5690;SDS011;2870;42.680;23.364;2022-09-13T14:20:30;8.27;;;4.63;;
5690;SDS011;2870;42.680;23.364;2022-09-13T14:23:15;7.17;;;4.33;;
5690;SDS011;2870;42.680;23.364;2022-09-13T14:25:43;10.50;;;4.37;;
5690;SDS011;2870;42.680;23.364;2022-09-13T14:28:13;6.40;;;4.23;;
5690;SDS011;2870;42.680;23.364;2022-09-13T14:30:45;6.80;;;4.53;;
5690;SDS011;2870;42.680;23.364;2022-09-13T14:33:19;7.53;;;4.60;;
5690;SDS011;2870;42.680;23.364;2022-09-13T14:35:55;6.13;;;4.07;;
5690;SDS011;2870;42.680;23.364;2022-09-13T14:38:28;6.63;;;4.30;;
5690;SDS011;2870;42.680;23.364;2022-09-13T14:40:58;10.20;;;5.10;;
5690;SDS011;2870;42.680;23.364;2022-09-13T14:43:28;6.63;;;4.80;;
5690;SDS011;2870;42.680;23.364;2022-09-13T14:45:58;7.23;;;5.10;;
5690;SDS011;2870;42.680;23.364;2022-09-13T14:48:28;9.47;;;5.87;;
5690;SDS011;2870;42.680;23.364;2022-09-13T14:51:02;6.33;;;4.50;;
5690;SDS011;2870;42.680;23.364;2022-09-13T14:53:37;8.43;;;4.70;;
5690;SDS011;2870;42.680;23.364;2022-09-13T14:56:10;9.70;;;5.87;;
5690;SDS011;2870;42.680;23.364;2022-09-13T14:58:44;9.73;;;4.50;;
5690;SDS011;2870;42.680;23.364;2022-09-13T15:01:13;7.63;;;4.70;;
5690;SDS011;2870;42.680;23.364;2022-09-13T15:03:43;8.20;;;4.80;;
5690;SDS011;2870;42.680;23.364;2022-09-13T15:06:19;8.83;;;5.20;;
5690;SDS011;2870;42.680;23.364;2022-09-13T15:08:48;7.27;;;4.40;;
5690;SDS011;2870;42.680;23.364;2022-09-13T15:11:26;7.80;;;5.30;;
5690;SDS011;2870;42.680;23.364;2022-09-13T15:14:14;7.33;;;4.80;;
5690;SDS011;2870;42.680;23.364;2022-09-13T15:16:47;8.80;;;4.70;;
5690;SDS011;2870;42.680;23.364;2022-09-13T15:19:35;9.33;;;4.90;;
5690;SDS011;2870;42.680;23.364;2022-09-13T15:22:05;8.20;;;4.97;;
5690;SDS011;2870;42.680;23.364;2022-09-13T15:24:47;6.73;;;4.93;;
5690;SDS011;2870;42.680;23.364;2022-09-13T15:27:17;6.83;;;4.40;;
5690;SDS011;2870;42.680;23.364;2022-09-13T15:29:48;8.37;;;4.83;;
5690;SDS011;2870;42.680;23.364;2022-09-13T15:32:20;10.30;;;5.27;;
5690;SDS011;2870;42.680;23.364;2022-09-13T15:34:48;8.97;;;5.70;;
5690;SDS011;2870;42.680;23.364;2022-09-13T15:37:15;19.13;;;6.07;;
5690;SDS011;2870;42.680;23.364;2022-09-13T15:39:45;10.80;;;5.33;;
5690;SDS011;2870;42.680;23.364;2022-09-13T15:42:13;15.53;;;6.10;;
5690;SDS011;2870;42.680;23.364;2022-09-13T15:44:41;8.17;;;4.73;;
5690;SDS011;2870;42.680;23.364;2022-09-13T15:47:10;9.63;;;5.50;;
5690;SDS011;2870;42.680;23.364;2022-09-13T15:49:45;11.93;;;6.20;;